createdAt,value
2017-12-31T00:00:35.888Z,12.1
2017-12-31T00:01:37.786Z,13.6
2017-12-31T00:02:39.681Z,12.1
2017-12-31T00:03:41.584Z,12.8
2017-12-31T00:04:43.452Z,11.4
2017-12-31T00:05:45.403Z,12.8
2017-12-31T00:06:47.310Z,13.6
2017-12-31T00:07:49.200Z,13.1
2017-12-31T00:08:51.149Z,11.3
2017-12-31T00:09:53.102Z,12.4
2017-12-31T00:10:55.003Z,10.9
2017-12-31T00:11:56.912Z,11.5
2017-12-31T00:12:58.810Z,11.2
2017-12-31T00:14:00.738Z,11.9
2017-12-31T00:15:02.634Z,11.8
2017-12-31T00:16:04.609Z,12.2
2017-12-31T00:17:06.469Z,11.7
2017-12-31T00:18:08.408Z,10.7
2017-12-31T00:19:10.277Z,10.2
2017-12-31T00:20:12.144Z,11.5
2017-12-31T00:21:14.076Z,10.7
2017-12-31T00:22:15.953Z,11.1
2017-12-31T00:23:17.880Z,11.7
2017-12-31T00:24:19.829Z,11.1
2017-12-31T00:25:21.754Z,11.8
2017-12-31T00:26:23.640Z,11.4
2017-12-31T00:27:25.617Z,11.3
2017-12-31T00:28:27.482Z,10.5
2017-12-31T00:29:29.464Z,10.3
2017-12-31T00:30:31.442Z,10.4
2017-12-31T00:31:33.280Z,12.4
2017-12-31T00:32:35.180Z,11.0
2017-12-31T00:33:37.052Z,10.9
2017-12-31T00:34:38.994Z,11.7
2017-12-31T00:35:40.932Z,10.8
2017-12-31T00:36:42.870Z,11.8
2017-12-31T00:37:44.847Z,11.2
2017-12-31T00:38:46.730Z,10.6
2017-12-31T00:39:48.678Z,11.1
2017-12-31T00:40:50.600Z,11.8
2017-12-31T00:41:52.468Z,12.1
2017-12-31T00:42:54.383Z,11.3
2017-12-31T00:43:56.279Z,11.6
2017-12-31T00:44:58.270Z,11.0
2017-12-31T00:46:00.176Z,11.3
2017-12-31T00:47:02.088Z,10.4
2017-12-31T00:48:04.013Z,10.9
2017-12-31T00:49:05.940Z,11.0
2017-12-31T00:50:07.834Z,10.8
2017-12-31T00:51:09.863Z,10.2
2017-12-31T00:52:11.744Z,11.7
2017-12-31T00:53:13.704Z,11.0
2017-12-31T00:54:15.703Z,10.9
2017-12-31T00:55:17.656Z,11.8
2017-12-31T00:56:19.606Z,11.4
2017-12-31T00:57:21.556Z,12.0
2017-12-31T00:58:23.518Z,11.0
2017-12-31T00:59:25.479Z,11.6
2017-12-31T01:00:27.425Z,10.7
2017-12-31T01:01:29.462Z,11.3
2017-12-31T01:02:31.389Z,10.6
2017-12-31T01:03:33.291Z,11.7
2017-12-31T01:04:35.257Z,11.8
2017-12-31T01:05:37.161Z,11.7
2017-12-31T01:06:39.127Z,11.3
2017-12-31T01:07:41.036Z,10.9
2017-12-31T01:08:42.996Z,11.4
2017-12-31T01:09:44.750Z,11.4
2017-12-31T01:10:46.708Z,11.8
2017-12-31T01:11:48.673Z,11.5
2017-12-31T01:12:50.642Z,11.7
2017-12-31T01:13:52.540Z,11.9
2017-12-31T01:14:54.452Z,11.9
2017-12-31T01:15:56.381Z,12.5
2017-12-31T01:16:58.275Z,11.7
2017-12-31T01:18:00.208Z,11.7
2017-12-31T01:19:02.146Z,12.3
2017-12-31T01:20:04.022Z,11.2
2017-12-31T01:21:05.968Z,12.3
2017-12-31T01:22:07.903Z,12.3
2017-12-31T01:23:09.868Z,12.1
2017-12-31T01:24:11.806Z,11.6
2017-12-31T01:25:13.660Z,10.7
2017-12-31T01:26:15.604Z,11.0
2017-12-31T01:27:17.521Z,11.7
2017-12-31T01:28:19.416Z,11.2
2017-12-31T01:29:21.307Z,11.6
2017-12-31T01:30:23.247Z,11.0
2017-12-31T01:31:25.198Z,10.1
2017-12-31T01:32:27.055Z,8.8
2017-12-31T01:33:29.147Z,10.3
2017-12-31T01:34:31.048Z,9.6
2017-12-31T01:35:32.909Z,9.7
2017-12-31T01:36:34.803Z,10.7
2017-12-31T01:37:36.711Z,10.2
2017-12-31T01:38:38.589Z,8.7
2017-12-31T01:39:40.575Z,10.0
2017-12-31T01:40:42.546Z,9.8
2017-12-31T01:41:44.460Z,9.0
2017-12-31T01:42:46.342Z,10.1
2017-12-31T01:43:48.294Z,10.4
2017-12-31T01:44:50.139Z,10.5
2017-12-31T01:45:52.047Z,11.4
2017-12-31T01:46:53.947Z,10.9
2017-12-31T01:47:55.824Z,11.2
2017-12-31T01:48:57.759Z,10.6
2017-12-31T01:49:59.766Z,10.2
2017-12-31T01:51:01.727Z,9.6
2017-12-31T01:52:03.716Z,9.5
2017-12-31T01:53:05.634Z,9.2
2017-12-31T01:54:07.595Z,10.8
2017-12-31T01:55:09.550Z,11.9
2017-12-31T01:56:11.486Z,11.9
2017-12-31T01:57:13.427Z,9.0
2017-12-31T01:58:15.298Z,9.0
2017-12-31T01:59:17.278Z,10.4
2017-12-31T02:00:19.259Z,10.6
2017-12-31T02:01:21.188Z,10.7
2017-12-31T02:02:23.111Z,9.1
2017-12-31T02:03:25.056Z,9.4
2017-12-31T02:04:26.902Z,8.7
2017-12-31T02:05:28.833Z,10.0
2017-12-31T02:06:30.773Z,10.2
2017-12-31T02:07:32.693Z,9.2
2017-12-31T02:08:34.648Z,9.1
2017-12-31T02:09:36.621Z,9.5
2017-12-31T02:10:38.510Z,9.5
2017-12-31T02:11:40.519Z,8.6
2017-12-31T02:12:42.435Z,8.7
2017-12-31T02:13:44.311Z,8.7
2017-12-31T02:14:46.229Z,11.0
2017-12-31T02:15:48.191Z,9.5
2017-12-31T02:16:50.060Z,9.3
2017-12-31T02:17:51.994Z,9.7
2017-12-31T02:18:53.952Z,10.0
2017-12-31T02:19:55.895Z,10.1
2017-12-31T02:20:57.769Z,9.6
2017-12-31T02:21:59.680Z,11.1
2017-12-31T02:23:01.553Z,9.4
2017-12-31T02:24:03.487Z,9.3
2017-12-31T02:25:05.356Z,8.6
2017-12-31T02:26:07.276Z,8.2
2017-12-31T02:27:09.170Z,8.8
2017-12-31T02:28:11.096Z,8.4
2017-12-31T02:29:13.008Z,8.7
2017-12-31T02:30:14.911Z,9.0
2017-12-31T02:31:16.791Z,8.5
2017-12-31T02:32:18.704Z,8.8
2017-12-31T02:33:20.603Z,9.6
2017-12-31T02:34:22.505Z,9.7
2017-12-31T02:35:24.395Z,8.5
2017-12-31T02:36:26.325Z,8.9
2017-12-31T02:37:28.283Z,9.2
2017-12-31T02:38:30.146Z,9.6
2017-12-31T02:39:32.127Z,8.0
2017-12-31T02:40:34.125Z,8.6
2017-12-31T02:41:36.083Z,9.3
2017-12-31T02:42:37.961Z,9.5
2017-12-31T02:43:39.917Z,8.6
2017-12-31T02:44:41.809Z,9.1
2017-12-31T02:45:43.682Z,9.1
2017-12-31T02:46:45.674Z,8.2
2017-12-31T02:47:47.611Z,8.2
2017-12-31T02:48:49.568Z,9.1
2017-12-31T02:49:51.469Z,8.4
2017-12-31T02:50:53.340Z,8.1
2017-12-31T02:51:55.263Z,7.6
2017-12-31T02:52:57.152Z,7.2
2017-12-31T02:53:59.056Z,8.0
2017-12-31T02:55:01.059Z,7.9
2017-12-31T03:01:05.402Z,5.6
2017-12-31T03:02:07.187Z,6.8
2017-12-31T03:03:08.937Z,8.7
2017-12-31T03:04:10.879Z,9.1
2017-12-31T03:05:12.807Z,9.6
2017-12-31T03:06:14.748Z,8.7
2017-12-31T03:07:16.674Z,9.0
2017-12-31T03:08:18.608Z,8.8
2017-12-31T03:09:20.481Z,7.9
2017-12-31T03:10:22.387Z,7.5
2017-12-31T03:11:24.311Z,7.9
2017-12-31T03:12:26.217Z,8.1
2017-12-31T03:13:28.164Z,8.2
2017-12-31T03:14:30.034Z,7.2
2017-12-31T03:15:31.979Z,7.8
2017-12-31T03:16:33.952Z,7.0
2017-12-31T03:17:35.918Z,8.9
2017-12-31T03:18:37.825Z,7.9
2017-12-31T03:19:39.681Z,7.1
2017-12-31T03:20:41.608Z,8.3
2017-12-31T03:21:43.582Z,6.8
2017-12-31T03:22:45.521Z,7.6
2017-12-31T03:23:47.547Z,7.6
2017-12-31T03:24:49.487Z,8.4
2017-12-31T03:25:51.410Z,6.7
2017-12-31T03:26:53.431Z,6.3
2017-12-31T03:27:55.313Z,6.1
2017-12-31T03:28:57.262Z,6.2
2017-12-31T03:29:59.187Z,5.6
2017-12-31T03:31:01.087Z,4.5
2017-12-31T03:32:03.032Z,4.0
2017-12-31T03:33:05.055Z,3.1
2017-12-31T03:34:07.038Z,3.5
2017-12-31T03:35:09.296Z,5.7
2017-12-31T03:36:11.175Z,5.4
2017-12-31T03:37:13.142Z,4.7
2017-12-31T03:38:15.230Z,4.4
2017-12-31T03:39:17.282Z,4.5
2017-12-31T03:40:19.209Z,3.6
2017-12-31T03:41:21.144Z,4.0
2017-12-31T03:42:23.102Z,3.5
2017-12-31T03:43:25.023Z,4.1
2017-12-31T03:44:26.982Z,4.8
2017-12-31T03:45:29.014Z,4.7
2017-12-31T03:46:30.984Z,4.2
2017-12-31T03:47:32.971Z,4.6
2017-12-31T03:48:34.933Z,3.7
2017-12-31T03:49:36.950Z,4.1
2017-12-31T03:50:39.043Z,3.9
2017-12-31T03:51:40.998Z,4.3
2017-12-31T03:52:42.989Z,2.9
2017-12-31T03:53:44.896Z,3.0
2017-12-31T03:54:46.760Z,2.6
2017-12-31T03:55:48.703Z,3.1
2017-12-31T03:56:50.629Z,3.4
2017-12-31T03:57:52.609Z,3.5
2017-12-31T03:58:54.587Z,3.9
2017-12-31T03:59:56.611Z,3.8
2017-12-31T04:00:58.585Z,3.2
2017-12-31T04:02:00.587Z,3.2
2017-12-31T04:03:02.639Z,2.4
2017-12-31T04:04:04.622Z,2.9
2017-12-31T04:05:06.742Z,2.3
2017-12-31T04:06:08.770Z,2.7
2017-12-31T04:07:10.722Z,2.6
2017-12-31T04:08:12.733Z,2.6
2017-12-31T04:09:14.930Z,2.9
2017-12-31T04:10:16.957Z,2.9
2017-12-31T04:11:18.911Z,2.2
2017-12-31T04:12:21.160Z,2.6
2017-12-31T04:13:23.365Z,1.5
2017-12-31T04:14:25.412Z,2.3
2017-12-31T04:15:27.431Z,2.9
2017-12-31T04:16:29.506Z,2.5
2017-12-31T04:17:31.567Z,2.6
2017-12-31T04:18:33.589Z,2.7
2017-12-31T04:19:35.701Z,2.5
2017-12-31T04:20:37.833Z,1.9
2017-12-31T04:21:40.019Z,2.1
2017-12-31T04:22:42.171Z,2.2
2017-12-31T04:23:44.175Z,2.2
2017-12-31T04:24:46.259Z,2.8
2017-12-31T04:25:48.613Z,3.2
2017-12-31T04:26:50.555Z,3.1
2017-12-31T04:27:52.781Z,3.4
2017-12-31T04:28:55.252Z,3.1
2017-12-31T04:29:57.845Z,2.4
2017-12-31T04:30:59.950Z,3.1
2017-12-31T04:32:02.591Z,3.3
2017-12-31T04:33:04.648Z,3.2
2017-12-31T04:34:06.894Z,2.6
2017-12-31T04:35:09.660Z,2.9
2017-12-31T04:36:11.744Z,2.5
2017-12-31T04:37:14.052Z,2.6
2017-12-31T04:38:16.020Z,2.8
2017-12-31T04:39:18.380Z,2.4
2017-12-31T04:40:20.624Z,2.1
2017-12-31T04:41:22.756Z,1.7
2017-12-31T04:42:24.724Z,2.2
2017-12-31T04:43:26.754Z,2.1
2017-12-31T04:44:28.958Z,2.3
2017-12-31T04:45:30.974Z,2.0
2017-12-31T04:46:33.014Z,1.8
2017-12-31T04:47:35.610Z,2.6
2017-12-31T04:48:37.706Z,2.2
2017-12-31T04:49:39.903Z,2.3
2017-12-31T04:50:42.230Z,2.1
2017-12-31T04:51:44.604Z,2.0
2017-12-31T04:52:47.383Z,2.2
2017-12-31T04:53:50.139Z,2.1
2017-12-31T04:54:51.975Z,2.0
2017-12-31T04:55:53.900Z,1.7
2017-12-31T04:56:55.966Z,1.6
2017-12-31T04:57:58.053Z,1.6
2017-12-31T04:58:59.967Z,1.4
2017-12-31T05:00:01.967Z,1.4
2017-12-31T05:01:03.921Z,2.0
2017-12-31T05:02:06.030Z,2.0
2017-12-31T05:03:08.278Z,2.1
2017-12-31T05:04:10.367Z,1.7
2017-12-31T05:05:12.360Z,1.6
2017-12-31T05:06:14.303Z,1.4
2017-12-31T05:07:16.382Z,1.4
2017-12-31T05:08:18.651Z,2.2
2017-12-31T05:09:20.916Z,1.4
2017-12-31T05:10:23.086Z,1.5
2017-12-31T05:11:25.049Z,1.6
2017-12-31T05:12:27.464Z,1.5
2017-12-31T05:13:29.943Z,1.4
2017-12-31T05:14:32.077Z,1.3
2017-12-31T05:15:34.452Z,1.7
2017-12-31T05:16:36.598Z,1.6
2017-12-31T05:17:39.333Z,1.5
2017-12-31T05:18:41.638Z,1.7
2017-12-31T05:19:43.897Z,1.8
2017-12-31T05:20:46.149Z,1.9
2017-12-31T05:21:48.301Z,1.7
2017-12-31T05:22:50.642Z,2.5
2017-12-31T05:23:52.799Z,2.2
2017-12-31T05:24:55.339Z,2.6
2017-12-31T05:25:57.541Z,2.1
2017-12-31T05:26:59.633Z,2.1
2017-12-31T05:28:02.470Z,2.7
2017-12-31T05:29:05.155Z,2.5
2017-12-31T05:30:07.256Z,2.4
2017-12-31T05:31:09.844Z,2.5
2017-12-31T05:32:12.226Z,3.5
2017-12-31T05:33:14.361Z,3.2
2017-12-31T05:34:16.838Z,2.3
2017-12-31T05:35:18.825Z,3.2
2017-12-31T05:36:20.807Z,2.7
2017-12-31T05:37:22.772Z,2.9
2017-12-31T05:38:24.781Z,2.2
2017-12-31T05:39:26.762Z,2.8
2017-12-31T05:40:28.888Z,2.5
2017-12-31T05:41:30.897Z,3.0
2017-12-31T05:42:33.022Z,2.7
2017-12-31T05:43:35.044Z,2.8
2017-12-31T05:44:37.787Z,2.3
2017-12-31T05:45:39.824Z,3.3
2017-12-31T05:46:42.680Z,2.6
2017-12-31T05:47:44.623Z,2.1
2017-12-31T05:48:46.566Z,3.1
2017-12-31T05:49:48.620Z,2.8
2017-12-31T05:50:50.891Z,3.1
2017-12-31T05:51:52.882Z,2.5
2017-12-31T05:52:54.877Z,3.1
2017-12-31T05:53:57.283Z,3.0
2017-12-31T05:54:59.333Z,3.2
2017-12-31T05:56:01.620Z,2.5
2017-12-31T05:57:04.189Z,2.9
2017-12-31T05:58:06.503Z,3.4
2017-12-31T05:59:08.857Z,3.1
2017-12-31T06:00:10.887Z,3.0
2017-12-31T06:01:12.833Z,3.2
2017-12-31T06:02:14.803Z,2.7
2017-12-31T06:03:17.671Z,3.7
2017-12-31T06:04:19.622Z,2.9
2017-12-31T06:05:21.581Z,3.3
2017-12-31T06:06:23.456Z,2.9
2017-12-31T06:07:25.431Z,4.5
2017-12-31T06:08:27.357Z,4.5
2017-12-31T06:09:29.256Z,3.4
2017-12-31T06:10:31.196Z,3.5
2017-12-31T06:11:33.101Z,7.4
2017-12-31T06:12:35.038Z,8.0
2017-12-31T06:13:36.985Z,5.0
2017-12-31T06:14:38.923Z,4.1
2017-12-31T06:15:40.937Z,3.6
2017-12-31T06:16:43.205Z,3.1
2017-12-31T06:17:45.490Z,3.6
2017-12-31T06:18:47.426Z,3.4
2017-12-31T06:19:49.441Z,2.7
2017-12-31T06:20:51.457Z,3.0
2017-12-31T06:21:53.425Z,3.0
2017-12-31T06:22:55.631Z,3.6
2017-12-31T06:23:57.622Z,3.6
2017-12-31T06:24:59.555Z,4.6
2017-12-31T06:26:01.443Z,3.1
2017-12-31T06:27:03.321Z,3.7
2017-12-31T06:28:05.277Z,3.7
2017-12-31T06:29:07.279Z,3.7
2017-12-31T06:30:09.200Z,3.7
2017-12-31T06:31:11.086Z,3.9
2017-12-31T06:32:13.188Z,4.8
2017-12-31T06:33:15.060Z,5.3
2017-12-31T06:34:17.223Z,4.1
2017-12-31T06:35:19.125Z,4.6
2017-12-31T06:36:21.067Z,4.1
2017-12-31T06:37:23.025Z,3.7
2017-12-31T06:38:24.909Z,8.2
2017-12-31T06:39:26.916Z,5.9
2017-12-31T06:40:28.828Z,4.0
2017-12-31T06:41:30.770Z,3.7
2017-12-31T06:42:32.718Z,7.1
2017-12-31T06:43:34.659Z,6.7
2017-12-31T06:44:36.560Z,6.5
2017-12-31T06:45:38.516Z,5.3
2017-12-31T06:46:40.458Z,5.0
2017-12-31T06:47:42.321Z,4.7
2017-12-31T06:48:44.247Z,4.8
2017-12-31T06:49:46.166Z,4.4
2017-12-31T06:50:48.216Z,4.9
2017-12-31T06:51:50.125Z,5.3
2017-12-31T06:52:52.072Z,4.6
2017-12-31T06:53:53.997Z,4.9
2017-12-31T06:54:55.919Z,4.7
2017-12-31T06:55:57.880Z,5.7
2017-12-31T07:01:55.628Z,5.2
2017-12-31T07:02:57.370Z,4.9
2017-12-31T07:03:59.128Z,5.7
2017-12-31T07:05:01.031Z,5.4
2017-12-31T07:06:02.993Z,5.7
2017-12-31T07:07:05.015Z,5.2
2017-12-31T07:08:06.939Z,5.7
2017-12-31T07:09:08.868Z,5.7
2017-12-31T07:10:10.856Z,5.2
2017-12-31T07:11:12.768Z,4.6
2017-12-31T07:12:14.626Z,5.3
2017-12-31T07:13:16.595Z,5.3
2017-12-31T07:14:18.537Z,4.5
2017-12-31T07:15:20.536Z,5.0
2017-12-31T07:16:22.495Z,4.6
2017-12-31T07:17:24.483Z,6.1
2017-12-31T07:18:26.450Z,8.0
2017-12-31T07:19:28.385Z,6.0
2017-12-31T07:20:30.393Z,6.9
2017-12-31T07:21:32.318Z,7.0
2017-12-31T07:22:34.241Z,8.2
2017-12-31T07:23:36.132Z,8.8
2017-12-31T07:24:38.118Z,10.6
2017-12-31T07:25:40.091Z,10.7
2017-12-31T07:26:42.012Z,7.9
2017-12-31T07:27:43.920Z,6.4
2017-12-31T07:28:45.805Z,5.7
2017-12-31T07:29:47.750Z,7.0
2017-12-31T07:30:49.656Z,6.3
2017-12-31T07:31:51.576Z,4.5
2017-12-31T07:32:53.509Z,4.7
2017-12-31T07:33:55.505Z,5.4
2017-12-31T07:34:57.457Z,4.5
2017-12-31T07:35:59.346Z,4.8
2017-12-31T07:37:01.373Z,5.9
2017-12-31T07:38:03.356Z,5.9
2017-12-31T07:39:05.329Z,4.3
2017-12-31T07:40:07.305Z,4.6
2017-12-31T07:41:09.232Z,4.2
2017-12-31T07:42:11.186Z,4.2
2017-12-31T07:43:13.062Z,4.5
2017-12-31T07:44:14.954Z,5.2
2017-12-31T07:45:16.863Z,4.2
2017-12-31T07:46:18.811Z,3.7
2017-12-31T07:47:20.731Z,4.2
2017-12-31T07:48:22.666Z,4.4
2017-12-31T07:49:24.592Z,4.8
2017-12-31T07:50:26.587Z,4.6
2017-12-31T07:51:28.532Z,5.0
2017-12-31T07:52:30.554Z,4.6
2017-12-31T07:53:32.493Z,4.6
2017-12-31T07:54:34.535Z,4.7
2017-12-31T07:55:36.506Z,4.0
2017-12-31T07:56:38.400Z,4.4
2017-12-31T07:57:40.439Z,3.9
2017-12-31T07:58:42.317Z,4.6
2017-12-31T07:59:44.211Z,4.8
2017-12-31T08:00:46.623Z,5.7
2017-12-31T08:01:48.928Z,5.4
2017-12-31T08:02:50.837Z,3.5
2017-12-31T08:03:52.787Z,5.3
2017-12-31T08:04:55.062Z,7.4
2017-12-31T08:05:57.045Z,7.3
2017-12-31T08:06:58.977Z,5.6
2017-12-31T08:08:00.981Z,6.7
2017-12-31T08:09:02.974Z,6.6
2017-12-31T08:10:04.942Z,11.3
2017-12-31T08:11:06.877Z,7.2
2017-12-31T08:12:08.891Z,7.4
2017-12-31T08:13:10.924Z,8.6
2017-12-31T08:14:12.862Z,8.8
2017-12-31T08:15:14.816Z,5.9
2017-12-31T08:16:16.786Z,4.8
2017-12-31T08:17:18.731Z,4.6
2017-12-31T08:18:20.696Z,6.2
2017-12-31T08:19:22.655Z,5.7
2017-12-31T08:20:24.570Z,4.4
2017-12-31T08:21:26.548Z,5.4
2017-12-31T08:22:28.462Z,8.9
2017-12-31T08:23:30.418Z,4.4
2017-12-31T08:24:32.259Z,5.5
2017-12-31T08:25:34.214Z,6.2
2017-12-31T08:26:36.100Z,6.4
2017-12-31T08:27:38.059Z,6.6
2017-12-31T08:28:40.054Z,9.5
2017-12-31T08:29:42.025Z,6.0
2017-12-31T08:30:43.941Z,4.5
2017-12-31T08:31:45.902Z,5.4
2017-12-31T08:32:47.790Z,5.3
2017-12-31T08:33:49.764Z,5.0
2017-12-31T08:34:51.751Z,4.9
2017-12-31T08:35:53.730Z,5.2
2017-12-31T08:36:55.689Z,7.6
2017-12-31T08:37:57.633Z,6.0
2017-12-31T08:38:59.564Z,8.1
2017-12-31T08:40:01.478Z,11.8
2017-12-31T08:41:03.301Z,9.4
2017-12-31T08:42:05.153Z,9.1
2017-12-31T08:43:07.028Z,8.3
2017-12-31T08:44:09.108Z,6.6
2017-12-31T08:45:11.163Z,10.7
2017-12-31T08:46:13.102Z,7.5
2017-12-31T08:47:15.068Z,10.8
2017-12-31T08:48:16.974Z,11.9
2017-12-31T08:49:18.981Z,9.4
2017-12-31T08:50:20.883Z,5.8
2017-12-31T08:51:22.815Z,4.5
2017-12-31T08:52:24.732Z,6.4
2017-12-31T08:53:26.619Z,4.8
2017-12-31T08:54:28.546Z,6.4
2017-12-31T08:55:30.462Z,6.0
2017-12-31T08:56:32.293Z,5.0
2017-12-31T08:57:34.145Z,5.1
2017-12-31T08:58:35.896Z,4.9
2017-12-31T08:59:37.736Z,4.5
2017-12-31T09:00:39.498Z,5.3
2017-12-31T09:01:41.292Z,6.5
2017-12-31T09:02:43.189Z,4.9
2017-12-31T09:03:44.991Z,8.4
2017-12-31T09:04:46.819Z,6.1
2017-12-31T09:05:48.727Z,7.5
2017-12-31T09:06:50.593Z,7.6
2017-12-31T09:07:52.526Z,18.4
2017-12-31T09:08:54.525Z,6.4
2017-12-31T09:09:56.437Z,5.2
2017-12-31T09:10:58.406Z,5.1
2017-12-31T09:12:00.216Z,5.6
2017-12-31T09:13:02.136Z,6.6
2017-12-31T09:14:04.739Z,4.8
2017-12-31T09:15:05.958Z,6.8
2017-12-31T09:16:07.845Z,9.4
2017-12-31T09:17:09.765Z,5.7
2017-12-31T09:18:11.590Z,3.3
2017-12-31T09:19:13.514Z,5.7
2017-12-31T09:20:15.376Z,4.7
2017-12-31T09:21:17.185Z,3.8
2017-12-31T09:22:19.019Z,3.7
2017-12-31T09:23:21.017Z,4.0
2017-12-31T09:24:22.958Z,3.4
2017-12-31T09:25:24.841Z,3.5
2017-12-31T09:26:27.418Z,3.8
2017-12-31T09:27:29.279Z,3.5
2017-12-31T09:28:32.711Z,3.7
2017-12-31T09:29:34.547Z,3.8
2017-12-31T09:30:36.323Z,3.8
2017-12-31T09:31:38.161Z,3.8
2017-12-31T09:32:40.023Z,3.3
2017-12-31T09:33:41.908Z,3.8
2017-12-31T09:34:44.355Z,3.7
2017-12-31T09:35:46.294Z,3.2
2017-12-31T09:36:48.188Z,4.5
2017-12-31T09:37:50.220Z,5.1
2017-12-31T09:38:52.326Z,3.2
2017-12-31T09:39:55.122Z,7.2
2017-12-31T09:40:58.254Z,7.5
2017-12-31T09:41:59.924Z,4.3
2017-12-31T09:43:01.823Z,3.8
2017-12-31T09:44:03.719Z,3.7
2017-12-31T09:45:05.500Z,3.5
2017-12-31T09:46:07.435Z,3.7
2017-12-31T09:47:09.249Z,6.8
2017-12-31T09:48:11.079Z,4.0
2017-12-31T09:49:12.996Z,3.5
2017-12-31T09:50:15.609Z,3.9
2017-12-31T09:51:17.509Z,3.4
2017-12-31T09:52:19.701Z,4.8
2017-12-31T09:53:21.731Z,5.5
2017-12-31T09:54:23.666Z,5.9
2017-12-31T09:55:25.680Z,4.8
2017-12-31T09:56:27.804Z,3.7
2017-12-31T09:57:29.789Z,3.2
2017-12-31T09:58:31.721Z,4.2
2017-12-31T09:59:33.649Z,3.6
2017-12-31T10:00:35.665Z,5.2
2017-12-31T10:01:37.681Z,4.2
2017-12-31T10:02:39.728Z,3.8
2017-12-31T10:03:41.744Z,3.7
2017-12-31T10:04:44.388Z,3.5
2017-12-31T10:05:46.387Z,3.6
2017-12-31T10:06:48.318Z,4.3
2017-12-31T10:07:50.281Z,3.6
2017-12-31T10:08:52.800Z,6.4
2017-12-31T10:09:54.725Z,6.2
2017-12-31T10:10:56.706Z,4.5
2017-12-31T10:11:58.656Z,7.2
2017-12-31T10:13:00.558Z,7.6
2017-12-31T10:14:02.501Z,6.2
2017-12-31T10:15:04.448Z,5.5
2017-12-31T10:16:06.406Z,5.1
2017-12-31T10:17:08.406Z,4.2
2017-12-31T10:18:11.099Z,4.4
2017-12-31T10:19:12.984Z,4.0
2017-12-31T10:20:17.703Z,4.3
2017-12-31T10:21:20.314Z,5.7
2017-12-31T10:22:22.273Z,5.4
2017-12-31T10:23:24.268Z,4.2
2017-12-31T10:24:26.223Z,5.0
2017-12-31T10:25:28.194Z,4.4
2017-12-31T10:26:30.100Z,6.1
2017-12-31T10:27:32.200Z,5.2
2017-12-31T10:28:34.583Z,4.2
2017-12-31T10:29:37.146Z,3.9
2017-12-31T10:30:39.013Z,5.0
2017-12-31T10:31:41.163Z,5.6
2017-12-31T10:32:43.098Z,5.8
2017-12-31T10:33:45.277Z,4.4
2017-12-31T10:34:47.848Z,3.5
2017-12-31T10:35:49.727Z,4.9
2017-12-31T10:36:51.673Z,4.5
2017-12-31T10:37:53.551Z,4.2
2017-12-31T10:38:55.448Z,4.6
2017-12-31T10:39:57.517Z,4.4
2017-12-31T10:40:59.284Z,4.1
2017-12-31T10:42:01.188Z,4.7
2017-12-31T10:43:03.108Z,4.5
2017-12-31T10:44:05.518Z,3.9
2017-12-31T10:45:07.405Z,4.0
2017-12-31T10:46:09.513Z,4.7
2017-12-31T10:47:11.330Z,4.7
2017-12-31T10:48:13.332Z,4.2
2017-12-31T10:49:15.480Z,3.8
2017-12-31T10:50:17.479Z,4.3
2017-12-31T10:51:25.400Z,4.3
2017-12-31T10:52:27.174Z,4.5
2017-12-31T10:53:29.503Z,3.9
2017-12-31T10:54:33.569Z,3.7
2017-12-31T10:55:35.367Z,3.9
2017-12-31T11:01:32.699Z,3.1
2017-12-31T11:02:34.521Z,4.7
2017-12-31T11:03:36.581Z,5.5
2017-12-31T11:04:38.627Z,5.0
2017-12-31T11:05:42.110Z,5.3
2017-12-31T11:06:43.890Z,3.9
2017-12-31T11:07:45.688Z,4.0
2017-12-31T11:08:47.622Z,3.1
2017-12-31T11:09:49.605Z,3.2
2017-12-31T11:10:52.853Z,3.3
2017-12-31T11:11:54.620Z,3.4
2017-12-31T11:12:56.453Z,3.5
2017-12-31T11:13:58.283Z,4.2
2017-12-31T11:15:00.296Z,4.5
2017-12-31T11:16:04.145Z,4.4
2017-12-31T11:17:06.094Z,3.2
2017-12-31T11:18:08.036Z,3.3
2017-12-31T11:19:10.240Z,3.2
2017-12-31T11:20:15.717Z,3.2
2017-12-31T11:21:17.892Z,3.9
2017-12-31T11:22:20.127Z,3.6
2017-12-31T11:23:24.459Z,2.5
2017-12-31T11:24:26.574Z,2.2
2017-12-31T11:25:28.794Z,2.7
2017-12-31T11:26:30.719Z,3.3
2017-12-31T11:27:36.242Z,2.7
2017-12-31T11:28:38.145Z,3.3
2017-12-31T11:29:40.243Z,3.3
2017-12-31T11:30:44.252Z,3.0
2017-12-31T11:31:46.205Z,3.0
2017-12-31T11:32:49.159Z,3.4
2017-12-31T11:33:52.845Z,2.9
2017-12-31T11:34:55.066Z,3.5
2017-12-31T11:35:57.242Z,2.3
2017-12-31T11:36:59.951Z,2.4
2017-12-31T11:38:04.173Z,2.7
2017-12-31T11:39:07.766Z,2.7
2017-12-31T11:40:10.576Z,2.3
2017-12-31T11:41:14.173Z,2.8
2017-12-31T11:42:16.159Z,2.5
2017-12-31T11:43:18.216Z,2.8
2017-12-31T11:44:23.506Z,2.9
2017-12-31T11:45:25.497Z,3.0
2017-12-31T11:46:27.516Z,2.9
2017-12-31T11:47:29.936Z,2.8
2017-12-31T11:48:34.452Z,2.3
2017-12-31T11:49:36.662Z,2.4
2017-12-31T11:50:38.618Z,2.1
2017-12-31T11:51:41.689Z,2.4
2017-12-31T11:52:44.165Z,2.5
2017-12-31T11:53:46.169Z,2.7
2017-12-31T11:54:48.165Z,2.7
2017-12-31T11:55:50.357Z,2.5
2017-12-31T11:56:54.234Z,3.0
2017-12-31T11:57:56.187Z,2.5
2017-12-31T11:58:58.206Z,3.3
2017-12-31T12:00:00.314Z,2.6
2017-12-31T12:01:05.385Z,3.0
2017-12-31T12:02:07.301Z,6.2
2017-12-31T12:03:09.281Z,6.8
2017-12-31T12:04:11.402Z,4.2
2017-12-31T12:05:13.356Z,2.6
2017-12-31T12:06:15.319Z,2.8
2017-12-31T12:07:17.273Z,2.3
2017-12-31T12:08:21.086Z,2.4
2017-12-31T12:09:23.164Z,2.2
2017-12-31T12:10:25.119Z,2.5
2017-12-31T12:11:26.921Z,2.3
2017-12-31T12:12:30.366Z,2.5
2017-12-31T12:13:34.701Z,2.5
2017-12-31T12:14:41.264Z,2.1
2017-12-31T12:15:43.895Z,2.9
2017-12-31T12:16:48.342Z,2.8
2017-12-31T12:17:50.344Z,3.4
2017-12-31T12:18:52.594Z,2.4
2017-12-31T12:19:55.321Z,2.9
2017-12-31T12:20:58.261Z,2.7
2017-12-31T12:22:00.243Z,3.0
2017-12-31T12:23:02.370Z,2.6
2017-12-31T12:24:04.790Z,3.0
2017-12-31T12:25:09.094Z,2.1
2017-12-31T12:26:11.178Z,2.8
2017-12-31T12:27:13.196Z,3.8
2017-12-31T12:28:18.066Z,3.3
2017-12-31T12:29:20.147Z,3.4
2017-12-31T12:30:22.450Z,3.5
2017-12-31T12:31:30.373Z,5.0
2017-12-31T12:32:32.498Z,5.4
2017-12-31T12:33:49.209Z,4.0
2017-12-31T12:34:51.181Z,3.4
2017-12-31T12:35:53.376Z,2.4
2017-12-31T12:36:57.318Z,2.8
2017-12-31T12:38:00.038Z,3.6
2017-12-31T12:39:02.503Z,5.0
2017-12-31T12:40:05.005Z,3.4
2017-12-31T12:41:07.881Z,2.9
2017-12-31T12:42:16.630Z,2.7
2017-12-31T12:43:18.466Z,1.9
2017-12-31T12:44:21.218Z,1.9
2017-12-31T12:45:24.250Z,3.4
2017-12-31T12:46:27.005Z,2.1
2017-12-31T12:47:29.896Z,2.7
2017-12-31T12:48:32.367Z,2.7
2017-12-31T12:49:35.060Z,3.4
2017-12-31T12:50:37.904Z,3.4
2017-12-31T12:51:40.556Z,2.9
2017-12-31T12:52:43.083Z,1.9
2017-12-31T12:53:45.778Z,2.4
2017-12-31T12:54:48.460Z,3.0
2017-12-31T12:55:51.081Z,3.3
2017-12-31T12:56:53.596Z,3.2
2017-12-31T12:57:56.293Z,5.3
2017-12-31T12:58:59.101Z,5.4
2017-12-31T13:00:01.980Z,3.3
2017-12-31T13:01:04.772Z,2.9
2017-12-31T13:02:07.434Z,2.3
2017-12-31T13:03:10.281Z,2.8
2017-12-31T13:04:12.931Z,2.3
2017-12-31T13:05:15.066Z,1.9
2017-12-31T13:06:17.563Z,2.1
2017-12-31T13:07:19.601Z,2.3
2017-12-31T13:08:21.839Z,3.4
2017-12-31T13:09:23.898Z,3.0
2017-12-31T13:10:26.053Z,3.0
2017-12-31T13:11:28.121Z,2.2
2017-12-31T13:12:30.121Z,1.9
2017-12-31T13:13:32.653Z,1.9
2017-12-31T13:14:34.879Z,2.0
2017-12-31T13:15:36.992Z,1.8
2017-12-31T13:16:39.000Z,1.9
2017-12-31T13:17:40.957Z,2.2
2017-12-31T13:18:42.950Z,1.8
2017-12-31T13:19:44.960Z,2.1
2017-12-31T13:20:46.889Z,2.1
2017-12-31T13:21:48.869Z,2.0
2017-12-31T13:22:50.876Z,2.0
2017-12-31T13:23:52.861Z,2.5
2017-12-31T13:24:55.053Z,2.2
2017-12-31T13:25:57.063Z,1.9
2017-12-31T13:26:59.114Z,2.3
2017-12-31T13:28:01.313Z,2.5
2017-12-31T13:29:03.265Z,2.9
2017-12-31T13:30:05.583Z,2.9
2017-12-31T13:31:08.095Z,2.0
2017-12-31T13:32:12.245Z,2.7
2017-12-31T13:33:14.482Z,2.5
2017-12-31T13:34:16.636Z,3.6
2017-12-31T13:35:19.755Z,2.5
2017-12-31T13:36:22.388Z,2.9
2017-12-31T13:37:24.239Z,2.7
2017-12-31T13:38:26.071Z,2.7
2017-12-31T13:39:28.769Z,2.5
2017-12-31T13:40:32.727Z,2.7
2017-12-31T13:41:35.064Z,2.4
2017-12-31T13:42:37.111Z,3.0
2017-12-31T13:43:39.266Z,2.0
2017-12-31T13:44:42.777Z,2.0
2017-12-31T13:45:44.855Z,2.8
2017-12-31T13:46:47.107Z,2.4
2017-12-31T13:47:49.302Z,2.4
2017-12-31T13:48:51.848Z,2.4
2017-12-31T13:49:54.235Z,4.6
2017-12-31T13:50:56.117Z,5.0
2017-12-31T13:51:58.577Z,2.9
2017-12-31T13:53:03.128Z,3.2
2017-12-31T13:54:06.895Z,4.0
2017-12-31T13:55:08.932Z,2.5
2017-12-31T13:56:10.861Z,2.4
2017-12-31T13:57:13.810Z,2.6
2017-12-31T13:58:16.635Z,2.4
2017-12-31T13:59:18.619Z,2.8
2017-12-31T14:00:20.572Z,2.8
2017-12-31T14:01:22.493Z,3.4
2017-12-31T14:02:24.465Z,3.0
2017-12-31T14:03:26.407Z,5.5
2017-12-31T14:04:28.228Z,6.6
2017-12-31T14:05:31.421Z,3.8
2017-12-31T14:06:33.247Z,5.1
2017-12-31T14:07:35.121Z,2.7
2017-12-31T14:08:36.971Z,5.7
2017-12-31T14:09:38.870Z,3.5
2017-12-31T14:10:40.806Z,3.9
2017-12-31T14:11:43.090Z,3.7
2017-12-31T14:12:45.695Z,3.9
2017-12-31T14:13:47.653Z,2.9
2017-12-31T14:14:49.966Z,3.4
2017-12-31T14:15:52.462Z,3.6
2017-12-31T14:16:57.644Z,3.5
2017-12-31T14:17:59.611Z,2.7
2017-12-31T14:19:01.680Z,3.0
2017-12-31T14:20:06.312Z,3.5
2017-12-31T14:21:08.408Z,3.6
2017-12-31T14:22:10.505Z,2.8
2017-12-31T14:23:12.623Z,2.8
2017-12-31T14:24:16.272Z,3.4
2017-12-31T14:25:18.103Z,3.2
2017-12-31T14:26:19.998Z,2.7